Time;durP1;ratioP1;P1;durP2;ratioP2;P2;SDS_P1;SDS_P2;PMS_P1;PMS_P2;Temp;Humidity;BMP_temperature;BMP_pressure;BME280_temperature;BME280_humidity;BME280_pressure;Samples;Min_cycle;Max_cycle;Signal;HPM_P1;HPM_P2
2022/02/09 00:01:10;;;;;;;4.50;1.45;;;10.10;99.90;;;;;;4972284;28;20050;-66
2022/02/09 00:03:40;;;;;;;3.90;1.13;;;10.10;99.90;;;;;;4962243;28;20113;-65
2022/02/09 00:06:11;;;;;;;6.43;1.57;;;10.10;99.90;;;;;;4977473;28;20069;-65
2022/02/09 00:08:38;;;;;;;7.07;1.45;;;10.10;99.90;;;;;;4969582;28;20082;-66
2022/02/09 00:11:07;;;;;;;8.50;1.40;;;10.10;99.90;;;;;;4967186;28;20054;-66
2022/02/09 00:13:47;;;;;;;6.13;1.15;;;10.20;99.90;;;;;;4965141;28;20051;-66
2022/02/09 00:17:03;;;;;;;5.05;1.55;;;10.10;99.90;;;;;;4964884;28;20081;-65
2022/02/09 00:19:27;;;;;;;2.97;1.27;;;10.10;99.90;;;;;;4962743;28;20109;-70
2022/02/09 00:30:30;;;;;;;3.25;1.65;;;10.10;99.90;;;;;;4966629;28;20115;-66
2022/02/09 01:03:07;;;;;;;4.03;0.60;;;10.20;99.90;;;;;;4970940;28;20047;-65
2022/02/09 01:56:41;;;;;;;4.65;1.35;;;10.00;99.90;;;;;;4971318;28;20105;-65
2022/02/09 01:59:08;;;;;;;8.90;3.15;;;10.00;99.90;;;;;;4970492;28;20435;-65
2022/02/09 02:01:35;;;;;;;11.07;4.22;;;10.10;99.90;;;;;;4971292;28;20113;-65
2022/02/09 02:04:02;;;;;;;9.63;5.20;;;10.10;99.90;;;;;;4970339;28;20556;-65
2022/02/09 02:06:30;;;;;;;3.50;1.85;;;10.10;99.90;;;;;;4971289;28;20073;-65
2022/02/09 02:08:57;;;;;;;2.78;1.08;;;10.10;99.90;;;;;;4971465;28;20058;-66
2022/02/09 02:11:34;;;;;;;1.05;0.90;;;10.10;99.90;;;;;;4969837;28;20047;-65
2022/02/09 02:14:23;;;;;;;7.03;0.88;;;10.10;99.90;;;;;;4970458;28;20109;-66
2022/02/09 02:16:55;;;;;;;5.63;1.08;;;10.10;99.90;;;;;;4971022;28;20093;-66
2022/02/09 02:25:37;;;;;;;3.60;1.02;;;10.10;99.90;;;;;;4970513;28;20133;-65
2022/02/09 02:38:55;;;;;;;1.70;0.65;;;10.20;99.90;;;;;;4968250;28;20097;-66
2022/02/09 02:47:14;;;;;;;6.50;0.70;;;10.20;99.90;;;;;;4970647;28;20050;-66
2022/02/09 02:58:14;;;;;;;2.22;0.60;;;10.20;99.90;;;;;;4970761;28;20059;-66
2022/02/09 03:14:15;;;;;;;2.08;0.68;;;10.20;99.90;;;;;;4969238;28;20047;-66
2022/02/09 03:16:51;;;;;;;1.17;0.50;;;10.20;99.90;;;;;;4969027;28;20051;-66
2022/02/09 03:49:13;;;;;;;3.25;0.65;;;10.00;99.90;;;;;;4969270;28;20050;-66
2022/02/09 03:51:59;;;;;;;2.85;0.50;;;10.10;99.90;;;;;;4970017;28;20051;-65
2022/02/09 03:54:40;;;;;;;2.92;0.60;;;10.10;99.90;;;;;;4968832;28;20509;-66
2022/02/09 03:57:22;;;;;;;3.40;1.27;;;10.10;99.90;;;;;;4969345;28;20050;-65
2022/02/09 03:59:49;;;;;;;0.75;0.47;;;10.00;99.90;;;;;;4969367;28;20105;-66
2022/02/09 04:02:16;;;;;;;2.58;1.38;;;10.00;99.90;;;;;;4970235;28;20047;-66
2022/02/09 04:04:43;;;;;;;2.85;0.70;;;10.00;99.90;;;;;;4982446;28;20082;-66
2022/02/09 04:07:12;;;;;;;1.70;0.50;;;10.00;99.90;;;;;;4989056;28;20054;-66
2022/02/09 04:09:45;;;;;;;1.27;0.55;;;10.00;99.90;;;;;;4979723;28;20145;-65
2022/02/09 04:13:05;;;;;;;1.27;0.40;;;10.00;99.90;;;;;;4968517;28;20109;-65
2022/02/09 04:18:04;;;;;;;3.00;0.85;;;9.90;99.90;;;;;;4968898;28;20086;-65
2022/02/09 04:37:23;;;;;;;1.20;0.40;;;9.90;99.90;;;;;;4971684;28;20039;-65
2022/02/09 04:39:59;;;;;;;1.02;0.30;;;10.00;99.90;;;;;;4971777;28;20086;-64
2022/02/09 04:48:00;;;;;;;2.70;0.60;;;9.90;99.90;;;;;;4971759;28;20047;-66
2022/02/09 04:50:38;;;;;;;1.85;0.40;;;9.90;99.90;;;;;;4970442;28;20494;-65
2022/02/09 04:53:22;;;;;;;3.47;0.40;;;9.90;99.90;;;;;;4960985;28;20059;-65
2022/02/09 05:02:26;;;;;;;3.00;0.63;;;9.90;99.90;;;;;;4939341;28;20494;-66
2022/02/09 05:17:57;;;;;;;4.13;1.25;;;10.00;99.90;;;;;;4968643;28;20677;-66
2022/02/09 05:26:02;;;;;;;1.08;0.32;;;9.90;99.90;;;;;;4973333;28;20054;-65
2022/02/09 05:28:29;;;;;;;0.25;0.25;;;9.90;99.90;;;;;;4970935;28;20486;-65
2022/02/09 05:30:55;;;;;;;2.33;0.55;;;9.80;99.90;;;;;;4973711;28;20055;-66
2022/02/09 05:33:22;;;;;;;0.77;0.30;;;9.70;99.90;;;;;;4616984;28;10000310;-66
2022/02/09 05:35:49;;;;;;;3.35;0.50;;;9.70;99.90;;;;;;4969490;28;20054;-66
2022/02/09 05:38:17;;;;;;;2.58;0.70;;;9.70;99.90;;;;;;4971247;28;20054;-65
2022/02/09 05:40:44;;;;;;;1.85;0.52;;;9.80;99.90;;;;;;4969484;28;20133;-65
2022/02/09 05:43:12;;;;;;;2.38;0.52;;;9.80;99.90;;;;;;4968624;28;20438;-66
2022/02/09 05:50:58;;;;;;;3.08;0.50;;;9.80;99.90;;;;;;4968927;28;20102;-65
2022/02/09 05:53:37;;;;;;;0.43;0.17;;;9.80;99.90;;;;;;4968607;28;20497;-67
2022/02/09 05:59:03;;;;;;;1.20;0.52;;;9.80;99.90;;;;;;4968405;28;20862;-67
2022/02/09 06:01:30;;;;;;;0.35;0.30;;;9.80;99.90;;;;;;4968755;28;20090;-67
2022/02/09 06:03:57;;;;;;;0.95;0.40;;;9.60;99.90;;;;;;4968848;28;20101;-67
2022/02/09 06:06:23;;;;;;;0.50;0.40;;;9.60;99.90;;;;;;4969103;28;20055;-70
2022/02/09 06:08:50;;;;;;;5.13;0.90;;;9.60;99.90;;;;;;4962791;28;20082;-68
2022/02/09 06:11:37;;;;;;;2.35;0.57;;;9.60;99.90;;;;;;4968661;28;20059;-67
2022/02/09 06:22:08;;;;;;;3.70;1.00;;;9.40;99.90;;;;;;4968320;28;20459;-67
2022/02/09 06:24:35;;;;;;;3.30;0.90;;;9.40;99.90;;;;;;4968424;28;20054;-67
2022/02/09 06:27:02;;;;;;;2.03;0.80;;;9.40;99.90;;;;;;4968406;28;20090;-67
2022/02/09 06:29:29;;;;;;;3.53;0.85;;;9.30;99.90;;;;;;4968425;28;20198;-67
2022/02/09 06:31:56;;;;;;;1.10;0.80;;;9.30;99.90;;;;;;4967812;28;20126;-66
2022/02/09 06:34:23;;;;;;;2.50;1.25;;;9.20;99.90;;;;;;4966668;28;20057;-67
2022/02/09 06:36:58;;;;;;;2.45;0.98;;;9.20;99.90;;;;;;4968972;28;20082;-68
2022/02/09 06:39:26;;;;;;;3.83;0.93;;;9.20;99.90;;;;;;4964781;28;20070;-67
2022/02/09 06:41:52;;;;;;;5.40;1.60;;;9.20;99.90;;;;;;4967530;28;20106;-68
2022/02/09 06:44:20;;;;;;;6.18;1.38;;;9.10;99.90;;;;;;4966949;28;20043;-67
2022/02/09 06:46:47;;;;;;;2.25;0.70;;;9.10;99.90;;;;;;4967784;28;20162;-67
2022/02/09 06:49:16;;;;;;;4.20;1.35;;;9.10;99.90;;;;;;4967058;28;20050;-67
2022/02/09 06:51:45;;;;;;;3.65;1.10;;;9.20;99.90;;;;;;4967372;28;20075;-67
2022/02/09 06:54:16;;;;;;;5.97;0.75;;;9.10;99.90;;;;;;4965974;28;20085;-66
2022/02/09 07:01:47;;;;;;;4.85;0.85;;;9.10;99.90;;;;;;4967714;28;20054;-67
2022/02/09 07:04:14;;;;;;;7.32;1.35;;;9.10;99.90;;;;;;4965686;28;20043;-67
2022/02/09 07:06:43;;;;;;;4.78;1.77;;;9.20;99.90;;;;;;4967198;28;20062;-66
2022/02/09 07:09:10;;;;;;;1.40;0.70;;;9.10;99.90;;;;;;4966754;28;20533;-67
2022/02/09 07:11:37;;;;;;;5.93;2.08;;;9.10;99.90;;;;;;4966775;28;20086;-68
2022/02/09 07:14:05;;;;;;;1.75;0.85;;;9.10;99.90;;;;;;4966373;28;20073;-68
2022/02/09 07:16:33;;;;;;;1.17;0.70;;;9.10;99.90;;;;;;4966262;28;20050;-67
2022/02/09 07:19:07;;;;;;;2.20;1.00;;;9.10;99.90;;;;;;4967722;28;20050;-69
2022/02/09 07:21:42;;;;;;;4.13;1.02;;;9.10;99.90;;;;;;4966643;28;20090;-68
2022/02/09 07:24:13;;;;;;;2.70;0.88;;;9.10;99.90;;;;;;4950059;28;20050;-68
2022/02/09 07:26:48;;;;;;;1.95;1.00;;;9.10;99.90;;;;;;4970371;28;20126;-67
2022/02/09 07:29:17;;;;;;;8.43;1.10;;;9.10;99.90;;;;;;4972965;28;20077;-65
2022/02/09 07:31:44;;;;;;;2.70;0.82;;;9.10;99.90;;;;;;4966791;28;20105;-67
2022/02/09 07:34:11;;;;;;;3.85;0.85;;;9.10;99.90;;;;;;4964579;28;20117;-67
2022/02/09 07:36:42;;;;;;;1.90;1.15;;;9.10;99.90;;;;;;4965585;28;20054;-66
2022/02/09 07:39:10;;;;;;;2.45;0.82;;;9.10;99.90;;;;;;4965519;28;20510;-66
2022/02/09 07:41:40;;;;;;;8.38;2.13;;;9.10;99.90;;;;;;4965030;28;20051;-65
2022/02/09 07:49:22;;;;;;;0.95;0.88;;;9.00;99.90;;;;;;4967995;28;20505;-66
2022/02/09 07:52:26;;;;;;;1.83;0.80;;;9.00;99.90;;;;;;4950622;28;20551;-65
2022/02/09 07:54:43;;;;;;;2.58;0.70;;;9.00;99.90;;;;;;4965247;28;20458;-66
2022/02/09 07:57:10;;;;;;;3.63;0.80;;;9.10;99.90;;;;;;4950402;28;20391;-65
2022/02/09 07:59:37;;;;;;;1.27;0.60;;;9.00;99.90;;;;;;4967923;28;20089;-66
2022/02/09 08:02:04;;;;;;;1.02;0.60;;;9.10;99.90;;;;;;4967722;28;20134;-66
2022/02/09 08:04:32;;;;;;;2.83;0.73;;;9.10;99.90;;;;;;4966404;28;20050;-68
2022/02/09 08:06:59;;;;;;;2.85;0.90;;;9.10;99.90;;;;;;4950830;28;20050;-66
2022/02/09 08:20:28;;;;;;;6.63;1.13;;;9.40;99.90;;;;;;4967569;28;20454;-68
2022/02/09 08:33:44;;;;;;;4.07;0.85;;;9.70;99.90;;;;;;4948419;28;20179;-68
2022/02/09 08:36:11;;;;;;;1.52;0.75;;;9.80;99.90;;;;;;4962739;28;20047;-69
2022/02/09 08:38:41;;;;;;;3.78;0.98;;;9.80;99.90;;;;;;4947839;28;20084;-67
2022/02/09 08:41:09;;;;;;;1.17;0.60;;;9.80;99.90;;;;;;4962453;28;20047;-68
2022/02/09 08:43:37;;;;;;;3.63;0.88;;;9.80;99.90;;;;;;4948031;28;20082;-68
2022/02/09 08:46:04;;;;;;;1.80;0.68;;;9.80;99.90;;;;;;4965771;28;20051;-68
2022/02/09 08:48:31;;;;;;;6.05;1.10;;;9.80;99.90;;;;;;4964289;28;20621;-68
2022/02/09 08:50:58;;;;;;;1.65;0.70;;;9.80;99.90;;;;;;4964948;28;20642;-68
2022/02/09 08:53:25;;;;;;;4.18;1.20;;;9.90;99.90;;;;;;4958731;28;20187;-68
2022/02/09 08:55:52;;;;;;;3.35;0.85;;;9.80;99.90;;;;;;4965158;28;20409;-69
2022/02/09 08:58:21;;;;;;;6.75;0.80;;;10.00;99.90;;;;;;4966465;28;20054;-68
2022/02/09 09:00:48;;;;;;;5.30;0.82;;;10.10;99.90;;;;;;4967197;28;20493;-67
2022/02/09 09:03:20;;;;;;;5.93;0.80;;;10.20;99.90;;;;;;4968609;28;20054;-68
2022/02/09 09:05:50;;;;;;;5.55;1.27;;;10.40;99.90;;;;;;4968956;28;20498;-68
2022/02/09 09:08:27;;;;;;;3.55;1.05;;;10.40;99.90;;;;;;4969931;28;20066;-69
2022/02/09 10:02:53;;;;;;;4.15;1.05;;;11.00;99.40;;;;;;4956809;28;20093;-66
2022/02/09 10:34:01;;;;;;;6.05;1.02;;;11.40;98.60;;;;;;4965508;28;20514;-69
2022/02/09 10:36:29;;;;;;;2.92;1.38;;;11.50;98.40;;;;;;4960631;28;20046;-68
2022/02/09 10:39:08;;;;;;;4.65;1.20;;;11.50;98.30;;;;;;4965938;28;20046;-68
2022/02/09 10:41:43;;;;;;;12.15;2.03;;;11.50;97.80;;;;;;4965100;28;20059;-68
2022/02/09 10:44:14;;;;;;;4.95;0.93;;;11.60;98.20;;;;;;4964296;28;20201;-69
2022/02/09 10:46:53;;;;;;;20.33;3.40;;;11.70;97.80;;;;;;4966382;28;20414;-67
2022/02/09 10:49:22;;;;;;;10.10;1.83;;;11.80;97.60;;;;;;4964517;28;20062;-69
2022/02/09 10:54:22;;;;;;;8.57;1.70;;;12.10;97.70;;;;;;4965583;28;20051;-68
2022/02/09 10:56:57;;;;;;;2.47;1.25;;;12.30;96.80;;;;;;4967335;28;20051;-66
2022/02/09 10:59:25;;;;;;;6.07;1.10;;;12.40;97.20;;;;;;4971421;28;20050;-74
2022/02/09 11:01:54;;;;;;;3.00;1.08;;;12.50;97.00;;;;;;4967674;28;20062;-65
2022/02/09 11:04:21;;;;;;;5.50;0.80;;;12.60;96.60;;;;;;4964829;28;20087;-76
2022/02/09 11:06:48;;;;;;;16.25;1.15;;;12.60;95.60;;;;;;4968972;28;20054;-76
2022/02/09 11:09:26;;;;;;;12.60;1.55;;;12.70;95.30;;;;;;4966149;28;20522;-77
2022/02/09 11:11:53;;;;;;;5.80;3.33;;;12.60;94.80;;;;;;4950254;28;20051;-76
2022/02/09 11:14:21;;;;;;;8.60;1.10;;;12.60;94.60;;;;;;4966856;28;20105;-70
2022/02/09 11:16:59;;;;;;;8.40;0.80;;;12.70;95.70;;;;;;4967304;28;20059;-77
2022/02/09 11:19:34;;;;;;;6.57;1.10;;;12.60;94.10;;;;;;4967457;28;20530;-77
2022/02/09 11:22:12;;;;;;;10.63;1.10;;;12.70;94.80;;;;;;4966915;28;20058;-75
2022/02/09 11:24:45;;;;;;;13.50;1.88;;;12.70;94.60;;;;;;4969011;28;20054;-77
2022/02/09 11:27:24;;;;;;;4.47;1.00;;;12.80;95.70;;;;;;4967091;28;20237;-77
2022/02/09 11:30:14;;;;;;;1.63;0.70;;;12.90;95.10;;;;;;4966969;28;20047;-76
2022/02/09 11:32:59;;;;;;;4.72;0.80;;;12.80;93.80;;;;;;4958587;28;20054;-77
2022/02/09 11:35:30;;;;;;;5.50;0.90;;;12.80;94.00;;;;;;4966142;28;20086;-77
2022/02/09 12:00:55;;;;;;;;;;;12.80;94.00;;;;;;4961484;28;20105;-74
2022/02/09 12:09:42;;;;;;;3.38;1.25;;;13.20;94.10;;;;;;4946697;29;20110;-75
2022/02/09 12:12:13;;;;;;;5.07;1.13;;;13.20;95.70;;;;;;4965817;28;20079;-73
2022/02/09 12:17:36;;;;;;;7.10;2.13;;;13.20;95.80;;;;;;4966156;28;20916;-73
2022/02/09 12:23:03;;;;;;;6.25;0.90;;;13.30;95.70;;;;;;4967008;28;20151;-73
2022/02/09 12:25:43;;;;;;;7.40;1.70;;;13.40;95.30;;;;;;4967697;28;20598;-74
2022/02/09 12:28:20;;;;;;;6.88;1.17;;;13.30;94.20;;;;;;4969833;28;20083;-73
2022/02/09 12:30:47;;;;;;;11.40;1.45;;;13.30;94.70;;;;;;4969099;28;20113;-73
2022/02/09 12:33:21;;;;;;;13.70;2.10;;;13.30;95.40;;;;;;4973039;28;20109;-74
2022/02/09 12:35:48;;;;;;;;;;;13.30;95.70;;;;;;4976599;28;20042;-75
2022/02/09 12:38:25;;;;;;;6.13;1.00;;;13.40;95.70;;;;;;4972092;28;20527;-74
2022/02/09 12:41:08;;;;;;;2.38;0.90;;;13.40;95.70;;;;;;4978617;28;20135;-74
2022/02/09 12:44:00;;;;;;;7.88;1.05;;;13.40;94.40;;;;;;4970938;28;20548;-74
2022/02/09 12:46:30;;;;;;;5.55;1.30;;;13.40;95.10;;;;;;4970139;28;20057;-74
2022/02/09 12:49:11;;;;;;;3.75;1.60;;;13.50;95.00;;;;;;4954338;28;20075;-72
2022/02/09 12:51:38;;;;;;;8.25;1.15;;;13.50;94.40;;;;;;4970465;28;20050;-74
2022/02/09 12:54:06;;;;;;;2.72;1.30;;;13.40;94.60;;;;;;4956591;28;20058;-73
2022/02/09 12:56:38;;;;;;;5.47;0.85;;;13.50;94.80;;;;;;4967128;28;20046;-74
2022/02/09 12:59:10;;;;;;;3.03;1.00;;;13.50;93.80;;;;;;4969624;28;20413;-72
2022/02/09 13:01:40;;;;;;;6.55;1.15;;;13.60;94.10;;;;;;4954655;28;20145;-74
2022/02/09 13:04:07;;;;;;;3.35;1.23;;;13.50;94.20;;;;;;4971810;28;20102;-73
2022/02/09 13:06:34;;;;;;;3.45;0.98;;;13.50;94.60;;;;;;4970501;28;20094;-73
2022/02/09 13:09:01;;;;;;;2.58;1.15;;;13.50;94.50;;;;;;4970800;28;20065;-74
2022/02/09 13:11:33;;;;;;;13.88;1.70;;;13.50;94.30;;;;;;4970745;28;20062;-73
2022/02/09 13:14:08;;;;;;;5.32;1.73;;;13.40;94.50;;;;;;4970511;28;20043;-75
2022/02/09 13:22:17;;;;;;;3.83;1.25;;;13.50;94.60;;;;;;4971973;28;20059;-72
2022/02/09 13:53:57;;;;;;;6.03;1.23;;;13.70;94.10;;;;;;4971593;28;20062;-73
2022/02/09 14:12:16;;;;;;;8.35;1.92;;;13.60;95.00;;;;;;4956094;28;20086;-74
2022/02/09 14:52:32;;;;;;;9.45;1.20;;;13.30;94.50;;;;;;4966109;28;20509;-74
2022/02/09 14:55:46;;;;;;;5.30;1.33;;;13.20;94.50;;;;;;4967347;28;20047;-73
2022/02/09 14:58:03;;;;;;;20.90;3.45;;;13.20;94.70;;;;;;4961139;28;20160;-74
2022/02/09 15:00:32;;;;;;;7.18;1.85;;;13.20;94.70;;;;;;4951968;28;20050;-73
2022/02/09 15:03:25;;;;;;;7.03;1.23;;;13.10;94.70;;;;;;4966802;28;20062;-75
2022/02/09 15:24:24;;;;;;;10.88;1.92;;;13.10;93.90;;;;;;4965294;28;20050;-74
2022/02/09 15:26:53;;;;;;;8.05;1.50;;;13.00;93.80;;;;;;4965627;28;20047;-74
2022/02/09 15:29:20;;;;;;;6.85;1.40;;;13.00;94.00;;;;;;4964041;28;20466;-72
2022/02/09 15:34:38;;;;;;;3.28;1.00;;;13.00;94.10;;;;;;4951360;28;20671;-74
2022/02/09 15:37:35;;;;;;;4.43;1.25;;;13.00;94.00;;;;;;4962779;28;20055;-73
2022/02/09 15:39:59;;;;;;;2.20;1.05;;;13.00;94.10;;;;;;4963795;28;20086;-75
2022/02/09 15:42:47;;;;;;;7.63;1.52;;;13.00;94.10;;;;;;4965045;28;20101;-75
2022/02/09 15:56:23;;;;;;;5.78;1.83;;;13.00;94.40;;;;;;4950598;28;20055;-75
2022/02/09 16:22:24;;;;;;;3.65;1.70;;;12.90;95.10;;;;;;4958393;28;20198;-74
2022/02/09 16:46:22;;;;;;;13.23;1.88;;;12.70;95.30;;;;;;4967213;28;20082;-68
2022/02/09 16:48:58;;;;;;;3.20;1.20;;;12.70;95.60;;;;;;4967115;28;20047;-71
2022/02/09 16:51:27;;;;;;;6.53;1.70;;;12.60;95.50;;;;;;4968818;28;20043;-70
2022/02/09 16:56:43;;;;;;;12.60;1.83;;;12.60;95.50;;;;;;4968252;28;20082;-72
2022/02/09 17:20:58;;;;;;;4.18;1.13;;;12.40;96.50;;;;;;4973631;28;20046;-61
2022/02/09 17:23:25;;;;;;;4.55;1.63;;;12.30;96.50;;;;;;4969335;28;20094;-61
2022/02/09 17:25:55;;;;;;;8.43;1.50;;;12.30;96.60;;;;;;4969933;28;20130;-59
2022/02/09 17:28:22;;;;;;;5.38;1.95;;;12.30;96.60;;;;;;4971469;28;20051;-60
2022/02/09 17:34:08;;;;;;;6.13;1.73;;;12.30;96.70;;;;;;4920710;29;20120;-60
2022/02/09 17:56:06;;;;;;;10.23;1.55;;;12.20;96.70;;;;;;4978395;28;20055;-60
2022/02/09 17:58:30;;;;;;;6.30;1.67;;;12.20;96.70;;;;;;4966085;28;20105;-59
2022/02/09 18:00:58;;;;;;;6.53;2.22;;;12.10;96.80;;;;;;4968107;28;20569;-60
2022/02/09 18:03:25;;;;;;;5.07;1.73;;;12.10;96.80;;;;;;4965875;28;20077;-60
2022/02/09 18:05:55;;;;;;;11.10;2.05;;;12.10;97.00;;;;;;4966389;28;20062;-60
2022/02/09 18:08:36;;;;;;;7.53;1.70;;;12.10;97.00;;;;;;4966444;28;20556;-61
2022/02/09 18:11:27;;;;;;;10.15;2.40;;;12.10;97.00;;;;;;4966876;28;20097;-60
2022/02/09 18:30:43;;;;;;;11.15;2.38;;;12.10;97.20;;;;;;4964725;28;20097;-70
2022/02/09 18:44:22;;;;;;;12.75;1.90;;;12.00;97.30;;;;;;4965779;28;20082;-71
2022/02/09 19:01:12;;;;;;;12.65;3.03;;;11.80;97.70;;;;;;4966176;28;20110;-70
2022/02/09 19:03:35;;;;;;;14.60;3.63;;;11.70;97.60;;;;;;4966003;28;20050;-70
2022/02/09 19:06:15;;;;;;;8.30;3.08;;;11.60;97.70;;;;;;4965264;28;20051;-70
2022/02/09 19:14:09;;;;;;;11.07;4.20;;;11.50;97.70;;;;;;4965032;28;20089;-71
2022/02/09 19:17:31;;;;;;;7.38;2.50;;;11.50;97.90;;;;;;4961706;28;20101;-70
2022/02/09 19:26:20;;;;;;;6.97;3.25;;;11.30;98.10;;;;;;4964127;28;20831;-70
2022/02/09 19:31:41;;;;;;;7.82;2.83;;;11.10;98.20;;;;;;4965417;28;20043;-70
2022/02/09 19:45:42;;;;;;;;;;;;;;;;;;;;;
2022/02/09 19:48:00;;;;;;;4.90;2.60;;;10.90;98.70;;;;;;4965620;28;20046;-68
2022/02/09 19:57:54;;;;;;;9.73;2.85;;;10.80;99.00;;;;;;4966021;28;20058;-70
2022/02/09 20:00:22;;;;;;;9.23;2.75;;;10.80;99.10;;;;;;4967222;28;20152;-71
2022/02/09 20:02:49;;;;;;;14.40;3.03;;;10.70;99.30;;;;;;4967041;28;20140;-71
2022/02/09 20:05:16;;;;;;;6.82;2.33;;;10.70;99.40;;;;;;4963698;28;20109;-71
2022/02/09 20:07:43;;;;;;;8.75;2.47;;;10.70;99.50;;;;;;4965867;28;20062;-71
2022/02/09 20:10:11;;;;;;;12.55;4.20;;;10.70;99.50;;;;;;4966513;28;20105;-71
2022/02/09 20:12:39;;;;;;;10.68;3.20;;;10.70;99.50;;;;;;4965156;28;20062;-70
2022/02/09 20:15:10;;;;;;;9.98;2.80;;;10.70;99.50;;;;;;4949641;28;20057;-71
2022/02/09 20:17:41;;;;;;;6.55;2.42;;;10.70;99.60;;;;;;4967236;28;20537;-67
2022/02/09 20:20:10;;;;;;;11.18;3.00;;;10.80;99.70;;;;;;4967300;28;20089;-73
2022/02/09 20:22:37;;;;;;;7.30;2.42;;;10.80;99.70;;;;;;4949653;28;20101;-71
2022/02/09 20:25:05;;;;;;;7.15;2.53;;;10.80;99.70;;;;;;4965853;28;20368;-71
2022/02/09 20:27:35;;;;;;;8.63;2.70;;;10.80;99.70;;;;;;4965908;28;20079;-71
2022/02/09 20:30:05;;;;;;;11.35;3.72;;;10.90;99.70;;;;;;4966401;28;20345;-72
2022/02/09 20:32:36;;;;;;;7.90;2.90;;;10.90;99.70;;;;;;4965260;28;20058;-71
2022/02/09 20:35:07;;;;;;;7.20;2.85;;;10.90;99.70;;;;;;4965354;28;20086;-72
2022/02/09 20:37:40;;;;;;;6.38;2.50;;;10.90;99.80;;;;;;4956088;28;20121;-74
2022/02/09 20:40:14;;;;;;;7.70;2.27;;;10.90;99.90;;;;;;4970034;28;20047;-72
2022/02/09 20:42:50;;;;;;;6.60;2.47;;;11.00;99.90;;;;;;4965694;28;20070;-71
2022/02/09 20:46:04;;;;;;;10.48;2.90;;;10.90;99.90;;;;;;4965913;28;20125;-73
2022/02/09 20:48:07;;;;;;;11.32;3.10;;;10.90;99.90;;;;;;4960856;28;20485;-72
2022/02/09 20:50:35;;;;;;;11.25;2.95;;;10.90;99.90;;;;;;4949125;28;20078;-72
2022/02/09 20:53:02;;;;;;;12.85;3.33;;;10.90;99.90;;;;;;4966478;28;20106;-73
2022/02/09 20:55:30;;;;;;;10.85;3.05;;;10.90;99.90;;;;;;4967264;28;20070;-73
2022/02/09 20:57:57;;;;;;;7.00;2.58;;;10.90;99.90;;;;;;4970239;28;20074;-73
2022/02/09 21:11:02;;;;;;;9.80;3.38;;;11.00;99.90;;;;;;4968794;28;20114;-72
2022/02/09 21:45:21;;;;;;;8.77;3.50;;;11.00;99.90;;;;;;4969325;28;20093;-74
2022/02/09 21:55:43;;;;;;;8.85;3.13;;;10.90;99.90;;;;;;4966856;28;20070;-75
2022/02/09 22:01:29;;;;;;;6.45;2.95;;;10.70;99.90;;;;;;4969034;28;20073;-73
2022/02/09 22:22:52;;;;;;;12.98;4.25;;;10.60;99.90;;;;;;4966633;28;20042;-74
2022/02/09 22:28:30;;;;;;;8.18;3.95;;;10.40;99.90;;;;;;4968030;28;20078;-72
2022/02/09 22:55:08;;;;;;;21.35;5.78;;;10.20;99.90;;;;;;4967896;28;20054;-72
2022/02/09 22:57:52;;;;;;;11.77;5.38;;;10.10;99.90;;;;;;4967837;28;20506;-71
2022/02/09 23:00:38;;;;;;;12.03;4.83;;;10.10;99.90;;;;;;4968364;28;20078;-72
2022/02/09 23:03:07;;;;;;;14.95;4.85;;;10.10;99.90;;;;;;4966503;28;20506;-71
2022/02/09 23:24:45;;;;;;;8.38;4.95;;;9.90;99.90;;;;;;4972724;28;20089;-71
2022/02/09 23:55:54;;;;;;;10.70;6.25;;;9.70;99.90;;;;;;4976010;28;20086;-71
